createdAt,value
2019-04-28T00:00:33.351Z,2.53
2019-04-28T00:03:01.695Z,2.63
2019-04-28T00:05:30.908Z,2.53
2019-04-28T00:08:01.143Z,2.60
2019-04-28T00:10:31.844Z,2.80
2019-04-28T00:13:01.271Z,4.10
2019-04-28T00:15:30.866Z,2.73
2019-04-28T00:17:59.568Z,3.00
2019-04-28T00:20:45.771Z,3.43
2019-04-28T00:23:25.876Z,3.00
2019-04-28T00:26:11.400Z,3.17
2019-04-28T00:28:41.581Z,3.93
2019-04-28T00:31:11.321Z,2.63
2019-04-28T00:33:41.027Z,2.53
2019-04-28T00:36:11.552Z,2.50
2019-04-28T00:38:41.488Z,2.97
2019-04-28T00:41:10.995Z,2.90
2019-04-28T00:43:39.305Z,2.30
2019-04-28T00:46:08.610Z,2.50
2019-04-28T00:48:36.885Z,2.80
2019-04-28T00:51:04.790Z,3.53
2019-04-28T00:53:33.275Z,2.93
2019-04-28T00:56:02.165Z,2.50
2019-04-28T00:58:31.936Z,2.53
2019-04-28T01:01:03.114Z,3.13
2019-04-28T01:03:32.152Z,2.27
2019-04-28T01:06:01.762Z,2.40
2019-04-28T01:08:30.900Z,2.33
2019-04-28T01:10:59.294Z,3.00
2019-04-28T01:13:27.232Z,2.63
2019-04-28T01:16:02.675Z,2.47
2019-04-28T01:18:40.486Z,2.27
2019-04-28T01:21:10.692Z,2.67
2019-04-28T01:23:40.234Z,3.00
2019-04-28T01:26:10.396Z,2.60
2019-04-28T01:28:39.775Z,3.23
2019-04-28T01:31:32.919Z,2.90
2019-04-28T01:34:19.839Z,2.87
2019-04-28T01:36:49.548Z,2.80
2019-04-28T01:39:20.065Z,2.80
2019-04-28T01:41:49.629Z,2.97
2019-04-28T01:44:17.400Z,2.40
2019-04-28T01:46:45.637Z,2.63
2019-04-28T01:49:14.137Z,2.60
2019-04-28T01:51:42.509Z,3.43
2019-04-28T01:54:11.718Z,2.50
2019-04-28T01:56:40.430Z,2.40
2019-04-28T01:59:10.198Z,2.97
2019-04-28T02:01:39.987Z,2.23
2019-04-28T02:04:10.041Z,2.70
2019-04-28T02:06:39.905Z,2.47
2019-04-28T02:09:09.732Z,2.87
2019-04-28T02:11:39.160Z,3.00
2019-04-28T02:14:09.648Z,2.70
2019-04-28T02:16:38.363Z,3.00
2019-04-28T02:19:07.187Z,2.90
2019-04-28T02:21:56.489Z,2.47
2019-04-28T02:24:28.170Z,3.20
2019-04-28T02:26:56.739Z,2.47
2019-04-28T02:29:25.019Z,2.53
2019-04-28T02:31:52.527Z,2.57
2019-04-28T02:34:21.156Z,2.93
2019-04-28T02:36:50.581Z,2.90
2019-04-28T02:39:20.676Z,2.50
2019-04-28T02:41:51.213Z,2.77
2019-04-28T02:44:20.676Z,2.43
2019-04-28T02:46:50.754Z,2.20
2019-04-28T02:49:26.935Z,2.60
2019-04-28T02:52:03.079Z,2.70
2019-04-28T02:54:31.764Z,2.47
2019-04-28T02:57:01.412Z,2.10
2019-04-28T02:59:30.421Z,2.50
2019-04-28T03:02:00.644Z,2.70
2019-04-28T03:04:30.766Z,2.67
2019-04-28T03:07:01.385Z,2.30
2019-04-28T03:09:30.572Z,2.30
2019-04-28T03:12:01.436Z,2.57
2019-04-28T03:14:32.427Z,1.90
2019-04-28T03:17:00.982Z,2.40
2019-04-28T03:19:31.072Z,2.50
2019-04-28T03:22:01.302Z,2.77
2019-04-28T03:24:31.584Z,2.73
2019-04-28T03:27:07.302Z,2.40
2019-04-28T03:29:40.358Z,2.20
2019-04-28T03:32:36.887Z,2.43
2019-04-28T03:34:53.690Z,2.60
2019-04-28T03:37:24.198Z,2.73
2019-04-28T03:39:53.246Z,2.83
2019-04-28T03:42:22.000Z,2.83
2019-04-28T03:44:51.238Z,3.33
2019-04-28T03:47:21.182Z,2.77
2019-04-28T03:49:50.818Z,2.37
2019-04-28T03:52:21.350Z,2.97
2019-04-28T03:54:51.076Z,3.00
2019-04-28T03:57:21.575Z,3.00
2019-04-28T03:59:51.122Z,2.70
2019-04-28T04:02:23.626Z,2.67
2019-04-28T04:04:53.648Z,2.70
2019-04-28T04:07:22.095Z,2.60
2019-04-28T04:10:01.003Z,2.90
2019-04-28T04:12:37.811Z,3.10
2019-04-28T04:15:21.780Z,2.70
2019-04-28T04:18:05.196Z,2.87
2019-04-28T04:20:33.435Z,2.70
2019-04-28T04:23:01.780Z,3.00
2019-04-28T04:25:31.424Z,3.20
2019-04-28T04:28:00.363Z,3.00
2019-04-28T04:30:31.167Z,4.40
2019-04-28T04:33:01.306Z,3.00
2019-04-28T04:35:31.586Z,4.20
2019-04-28T04:38:01.108Z,2.93
2019-04-28T04:40:31.623Z,3.37
2019-04-28T04:43:01.677Z,2.90
2019-04-28T04:45:30.712Z,3.47
2019-04-28T04:48:00.560Z,3.00
2019-04-28T04:50:31.369Z,3.10
2019-04-28T04:53:02.649Z,3.47
2019-04-28T04:55:31.930Z,3.10
2019-04-28T04:58:00.735Z,3.00
2019-04-28T05:00:37.248Z,3.17
2019-04-28T05:03:12.848Z,3.00
2019-04-28T05:05:41.346Z,3.17
2019-04-28T05:08:10.523Z,2.97
2019-04-28T05:10:40.362Z,3.43
2019-04-28T05:13:10.213Z,3.70
2019-04-28T05:15:40.035Z,3.27
2019-04-28T05:18:10.026Z,4.00
2019-04-28T05:20:37.927Z,3.47
2019-04-28T05:23:29.756Z,2.97
2019-04-28T05:26:01.489Z,3.00
2019-04-28T05:28:30.638Z,3.63
2019-04-28T05:31:00.074Z,5.80
2019-04-28T05:33:33.739Z,5.30
2019-04-28T05:36:02.623Z,4.37
2019-04-28T05:38:30.386Z,3.47
2019-04-28T05:41:02.404Z,3.63
2019-04-28T05:43:30.017Z,3.80
2019-04-28T05:46:00.297Z,4.80
2019-04-28T05:48:47.500Z,3.50
2019-04-28T05:51:19.865Z,3.67
2019-04-28T05:53:59.505Z,4.67
2019-04-28T05:56:46.758Z,4.07
2019-04-28T05:59:19.485Z,3.07
2019-04-28T06:02:00.484Z,3.60
2019-04-28T06:04:30.406Z,3.90
2019-04-28T06:07:27.835Z,6.43
2019-04-28T06:09:56.230Z,4.50
2019-04-28T06:12:24.680Z,3.47
2019-04-28T06:14:52.659Z,3.40
2019-04-28T06:17:20.814Z,4.27
2019-04-28T06:19:50.526Z,3.63
2019-04-28T06:22:18.531Z,3.98
2019-04-28T06:24:48.666Z,3.03
2019-04-28T06:27:16.957Z,3.70
2019-04-28T06:29:45.092Z,2.70
2019-04-28T06:32:13.510Z,10.27
2019-04-28T06:34:41.758Z,10.50
2019-04-28T06:37:09.791Z,15.93
2019-04-28T06:39:39.798Z,3.23
2019-04-28T06:42:07.844Z,2.63
2019-04-28T06:44:36.178Z,3.00
2019-04-28T06:47:04.490Z,8.47
2019-04-28T06:49:33.455Z,3.40
2019-04-28T06:52:01.695Z,2.13
2019-04-28T06:54:30.482Z,2.67
2019-04-28T06:56:58.706Z,2.80
2019-04-28T06:59:26.559Z,2.10
2019-04-28T07:01:54.920Z,2.20
2019-04-28T07:04:23.126Z,3.97
2019-04-28T07:06:51.716Z,2.30
2019-04-28T07:09:20.329Z,2.67
2019-04-28T07:11:48.842Z,2.33
2019-04-28T07:14:16.656Z,2.83
2019-04-28T07:16:45.146Z,2.20
2019-04-28T07:19:14.749Z,2.60
2019-04-28T07:22:08.109Z,2.10
2019-04-28T07:24:35.670Z,2.50
2019-04-28T07:27:07.173Z,2.73
2019-04-28T07:29:35.396Z,2.50
2019-04-28T07:32:02.970Z,2.43
2019-04-28T07:34:30.906Z,2.63
2019-04-28T07:36:58.820Z,2.37
2019-04-28T07:39:26.697Z,4.63
2019-04-28T07:41:54.960Z,4.00
2019-04-28T07:44:23.261Z,5.10
2019-04-28T07:46:51.244Z,2.90
2019-04-28T07:49:19.201Z,3.70
2019-04-28T07:52:06.376Z,2.53
2019-04-28T07:54:34.703Z,3.30
2019-04-28T07:57:02.981Z,3.87
2019-04-28T07:59:30.866Z,3.13
2019-04-28T08:01:58.886Z,3.70
2019-04-28T08:04:26.851Z,2.80
2019-04-28T08:06:55.453Z,2.37
2019-04-28T08:09:24.189Z,2.27
2019-04-28T08:11:52.453Z,2.80
2019-04-28T08:14:20.438Z,2.30
2019-04-28T08:16:48.312Z,2.33
2019-04-28T08:19:16.537Z,2.70
2019-04-28T08:21:44.774Z,3.33
2019-04-28T08:24:12.655Z,4.60
2019-04-28T08:26:41.250Z,4.93
2019-04-28T08:29:09.902Z,6.77
2019-04-28T08:31:57.203Z,3.20
2019-04-28T08:34:26.276Z,13.80
2019-04-28T08:36:54.626Z,4.23
2019-04-28T08:39:26.549Z,3.37
2019-04-28T08:41:53.245Z,4.00
2019-04-28T08:44:21.860Z,3.20
2019-04-28T08:46:50.521Z,4.50
2019-04-28T08:49:18.755Z,2.90
2019-04-28T08:51:46.950Z,3.13
2019-04-28T08:54:15.183Z,2.50
2019-04-28T08:56:43.415Z,2.57
2019-04-28T08:59:10.620Z,2.50
2019-04-28T09:01:38.562Z,5.43
2019-04-28T09:04:15.123Z,4.20
2019-04-28T09:06:37.722Z,3.47
2019-04-28T09:09:09.629Z,2.77
2019-04-28T09:11:37.935Z,3.17
2019-04-28T09:14:06.222Z,5.03
2019-04-28T09:16:34.106Z,8.63
2019-04-28T09:19:01.998Z,1.90
2019-04-28T09:21:30.602Z,2.53
2019-04-28T09:23:58.845Z,5.23
2019-04-28T09:26:27.107Z,6.10
2019-04-28T09:28:55.280Z,1.90
2019-04-28T09:31:23.554Z,3.60
2019-04-28T09:33:51.862Z,2.33
2019-04-28T09:36:20.258Z,2.67
2019-04-28T09:38:48.862Z,2.13
2019-04-28T09:41:17.399Z,7.90
2019-04-28T09:44:14.276Z,8.03
2019-04-28T09:46:43.420Z,10.23
2019-04-28T09:49:12.131Z,3.73
2019-04-28T09:51:40.455Z,3.63
2019-04-28T09:54:07.947Z,3.93
2019-04-28T09:56:36.707Z,4.63
2019-04-28T09:59:05.103Z,6.30
2019-04-28T10:01:33.692Z,10.07
2019-04-28T10:04:02.157Z,2.87
2019-04-28T10:06:30.650Z,4.87
2019-04-28T10:08:58.954Z,5.33
2019-04-28T10:11:30.721Z,4.30
2019-04-28T10:13:57.123Z,3.00
2019-04-28T10:16:25.919Z,1.80
2019-04-28T10:18:53.767Z,2.17
2019-04-28T10:21:21.434Z,8.30
2019-04-28T10:23:49.591Z,2.37
2019-04-28T10:26:17.626Z,4.20
2019-04-28T10:28:45.810Z,5.33
2019-04-28T10:31:14.286Z,4.30
2019-04-28T10:33:44.922Z,2.30
2019-04-28T10:36:14.743Z,2.63
2019-04-28T10:38:44.558Z,3.37
2019-04-28T10:41:18.296Z,1.83
2019-04-28T10:43:45.857Z,2.87
2019-04-28T10:46:14.133Z,3.10
2019-04-28T10:48:41.733Z,3.40
2019-04-28T10:51:09.967Z,2.67
2019-04-28T10:53:38.461Z,2.20
2019-04-28T10:56:06.744Z,2.17
2019-04-28T10:58:34.925Z,2.60
2019-04-28T11:01:03.105Z,1.80
2019-04-28T11:03:31.786Z,1.60
2019-04-28T11:06:00.379Z,2.20
2019-04-28T11:08:47.909Z,3.93
2019-04-28T11:11:34.061Z,2.23
2019-04-28T11:14:02.753Z,1.63
2019-04-28T11:16:34.622Z,1.87
2019-04-28T11:19:03.147Z,1.83
2019-04-28T11:21:31.517Z,1.90
2019-04-28T11:23:59.591Z,1.67
2019-04-28T11:26:28.231Z,1.93
2019-04-28T11:28:56.981Z,1.50
2019-04-28T11:31:24.678Z,2.40
2019-04-28T11:34:15.526Z,2.30
2019-04-28T11:36:43.762Z,2.60
2019-04-28T11:39:14.748Z,1.73
2019-04-28T11:41:43.366Z,1.40
2019-04-28T11:44:11.926Z,1.90
2019-04-28T11:46:40.217Z,2.10
2019-04-28T11:49:08.517Z,2.23
2019-04-28T11:51:36.784Z,1.80
2019-04-28T11:54:05.072Z,1.80
2019-04-28T11:56:41.324Z,2.20
2019-04-28T11:59:04.288Z,2.03
2019-04-28T12:01:33.081Z,3.73
2019-04-28T12:04:03.228Z,2.73
2019-04-28T12:06:30.761Z,6.07
2019-04-28T12:09:13.652Z,3.53
2019-04-28T12:11:45.257Z,2.03
2019-04-28T12:14:20.281Z,1.67
2019-04-28T12:17:06.127Z,1.93
2019-04-28T12:19:41.327Z,1.80
2019-04-28T12:22:09.856Z,1.80
2019-04-28T12:24:38.148Z,2.30
2019-04-28T12:27:06.775Z,4.30
2019-04-28T12:29:35.279Z,5.43
2019-04-28T12:32:03.847Z,5.33
2019-04-28T12:34:32.013Z,5.30
2019-04-28T12:37:00.651Z,3.30
2019-04-28T12:39:28.577Z,2.77
2019-04-28T12:41:57.233Z,3.00
2019-04-28T12:44:25.710Z,3.10
2019-04-28T12:46:53.960Z,5.03
2019-04-28T12:49:27.447Z,3.40
2019-04-28T12:51:55.727Z,9.50
2019-04-28T12:54:26.183Z,4.30
2019-04-28T12:56:53.716Z,4.20
2019-04-28T12:59:27.047Z,2.70
2019-04-28T13:02:17.812Z,2.47
2019-04-28T13:04:52.262Z,3.73
2019-04-28T13:07:20.624Z,2.90
2019-04-28T13:09:48.597Z,2.13
2019-04-28T13:12:17.225Z,2.23
2019-04-28T13:14:45.463Z,7.13
2019-04-28T13:17:14.017Z,6.37
2019-04-28T13:19:42.673Z,6.23
2019-04-28T13:22:10.899Z,2.17
2019-04-28T13:24:39.222Z,4.07
2019-04-28T13:27:10.111Z,3.50
2019-04-28T13:29:38.250Z,3.10
2019-04-28T13:32:06.401Z,1.50
2019-04-28T13:34:36.751Z,3.13
2019-04-28T13:37:05.079Z,2.60
2019-04-28T13:39:51.294Z,4.53
2019-04-28T13:42:19.642Z,2.63
2019-04-28T13:44:51.362Z,2.70
2019-04-28T13:47:20.038Z,2.60
2019-04-28T13:49:50.780Z,1.57
2019-04-28T13:52:19.394Z,0.80
2019-04-28T13:54:50.193Z,1.70
2019-04-28T13:57:17.998Z,1.93
2019-04-28T13:59:47.094Z,1.60
2019-04-28T14:02:22.618Z,1.60
2019-04-28T14:05:22.534Z,2.70
2019-04-28T14:07:51.078Z,2.57
2019-04-28T14:10:19.539Z,8.27
2019-04-28T14:12:47.132Z,2.93
2019-04-28T14:15:15.035Z,12.37
2019-04-28T14:17:43.747Z,11.70
2019-04-28T14:20:12.263Z,7.20
2019-04-28T14:22:40.099Z,2.53
2019-04-28T14:25:08.917Z,0.60
2019-04-28T14:27:37.638Z,1.63
2019-04-28T14:30:06.173Z,1.20
2019-04-28T14:32:34.426Z,0.77
2019-04-28T14:35:02.933Z,1.17
2019-04-28T14:37:30.976Z,1.30
2019-04-28T14:39:59.670Z,1.40
2019-04-28T14:42:27.543Z,2.27
2019-04-28T14:44:55.874Z,2.60
2019-04-28T14:47:24.578Z,1.80
2019-04-28T14:49:52.519Z,1.23
2019-04-28T14:52:21.159Z,2.87
2019-04-28T14:54:49.412Z,1.30
2019-04-28T14:57:17.752Z,1.60
2019-04-28T14:59:46.498Z,2.08
2019-04-28T15:02:43.108Z,2.05
2019-04-28T15:05:29.112Z,1.47
2019-04-28T15:08:26.303Z,1.97
2019-04-28T15:11:12.902Z,1.17
2019-04-28T15:13:41.189Z,1.00
2019-04-28T15:16:09.566Z,0.90
2019-04-28T15:18:37.542Z,1.10
2019-04-28T15:21:06.179Z,1.63
2019-04-28T15:23:33.763Z,1.70
2019-04-28T15:26:02.489Z,2.50
2019-04-28T15:28:31.124Z,2.30
2019-04-28T15:30:59.720Z,1.50
2019-04-28T15:33:28.452Z,1.60
2019-04-28T15:35:56.372Z,1.87
2019-04-28T15:38:24.740Z,1.00
2019-04-28T15:40:52.998Z,1.47
2019-04-28T15:43:21.740Z,1.30
2019-04-28T15:45:50.359Z,2.00
2019-04-28T15:48:18.954Z,3.20
2019-04-28T15:50:47.301Z,1.73
2019-04-28T15:53:15.868Z,1.20
2019-04-28T15:56:01.433Z,1.50
2019-04-28T15:58:30.567Z,2.00
2019-04-28T16:00:59.080Z,3.47
2019-04-28T16:03:27.739Z,1.27
2019-04-28T16:05:55.942Z,1.33
2019-04-28T16:08:24.628Z,1.17
2019-04-28T16:10:52.487Z,1.30
2019-04-28T16:13:20.348Z,3.50
2019-04-28T16:15:48.334Z,3.00
2019-04-28T16:18:17.095Z,2.53
2019-04-28T16:20:45.407Z,3.40
2019-04-28T16:23:13.725Z,0.97
2019-04-28T16:25:42.048Z,2.40
2019-04-28T16:28:10.778Z,5.07
2019-04-28T16:30:38.874Z,12.57
2019-04-28T16:33:07.107Z,11.43
2019-04-28T16:35:35.712Z,8.90
2019-04-28T16:38:03.891Z,12.53
2019-04-28T16:40:42.762Z,16.93
2019-04-28T16:43:14.072Z,14.83
2019-04-28T16:45:42.253Z,17.40
2019-04-28T16:48:10.080Z,6.80
2019-04-28T16:50:37.884Z,12.30
2019-04-28T16:53:05.752Z,17.10
2019-04-28T16:55:45.308Z,22.20
2019-04-28T16:58:33.228Z,9.30
2019-04-28T17:01:23.941Z,7.37
2019-04-28T17:03:52.534Z,10.97
2019-04-28T17:06:20.521Z,5.40
2019-04-28T17:08:49.178Z,6.77
2019-04-28T17:11:17.398Z,5.67
2019-04-28T17:13:45.325Z,5.73
2019-04-28T17:16:13.732Z,4.67
2019-04-28T17:18:41.989Z,3.30
2019-04-28T17:21:10.693Z,2.90
2019-04-28T17:23:39.223Z,6.97
2019-04-28T17:26:07.050Z,2.93
2019-04-28T17:28:35.641Z,1.83
2019-04-28T17:31:03.957Z,5.77
2019-04-28T17:33:32.301Z,2.73
2019-04-28T17:36:00.695Z,5.03
2019-04-28T17:38:29.075Z,2.97
2019-04-28T17:40:57.380Z,6.07
2019-04-28T17:43:26.014Z,3.80
2019-04-28T17:45:53.932Z,3.07
2019-04-28T17:48:27.704Z,2.37
2019-04-28T17:50:56.425Z,3.13
2019-04-28T17:53:24.521Z,3.97
2019-04-28T17:55:53.289Z,2.60
2019-04-28T17:58:21.889Z,3.63
2019-04-28T18:01:16.053Z,5.87
2019-04-28T18:03:56.944Z,5.67
2019-04-28T18:06:25.549Z,2.77
2019-04-28T18:08:53.484Z,2.90
2019-04-28T18:11:21.976Z,2.93
2019-04-28T18:13:50.299Z,4.87
2019-04-28T18:16:36.343Z,6.10
2019-04-28T18:19:07.548Z,3.27
2019-04-28T18:21:36.162Z,2.03
2019-04-28T18:24:04.089Z,2.10
2019-04-28T18:26:32.474Z,14.33
2019-04-28T18:29:01.337Z,40.03
2019-04-28T18:31:55.415Z,64.60
2019-04-28T18:34:39.545Z,14.43
2019-04-28T18:37:33.321Z,45.03
2019-04-28T18:40:19.743Z,37.63
2019-04-28T18:42:58.168Z,36.50
2019-04-28T18:45:26.970Z,11.57
2019-04-28T18:47:55.828Z,5.10
2019-04-28T18:50:24.113Z,3.27
2019-04-28T18:52:52.475Z,3.37
2019-04-28T18:55:20.728Z,4.17
2019-04-28T18:57:49.378Z,29.20
2019-04-28T19:00:19.990Z,49.70
2019-04-28T19:02:49.082Z,16.83
2019-04-28T19:05:18.668Z,15.83
2019-04-28T19:08:15.645Z,9.57
2019-04-28T19:11:04.371Z,18.40
2019-04-28T19:13:37.700Z,10.30
2019-04-28T19:16:32.275Z,11.57
2019-04-28T19:19:03.498Z,7.43
2019-04-28T19:21:33.239Z,4.43
2019-04-28T19:24:02.688Z,4.37
2019-04-28T19:26:31.599Z,4.00
2019-04-28T19:28:59.687Z,4.30
2019-04-28T19:31:27.999Z,3.00
2019-04-28T19:33:56.640Z,5.20
2019-04-28T19:36:25.165Z,3.10
2019-04-28T19:39:03.157Z,7.40
2019-04-28T19:41:23.655Z,2.07
2019-04-28T19:43:51.272Z,2.03
2019-04-28T19:46:19.572Z,2.23
2019-04-28T19:48:47.090Z,3.20
2019-04-28T19:51:31.075Z,3.70
2019-04-28T19:53:49.063Z,4.97
2019-04-28T19:56:25.654Z,10.37
2019-04-28T19:58:59.978Z,15.53
2019-04-28T20:01:29.378Z,16.57
2019-04-28T20:03:58.156Z,13.00
2019-04-28T20:06:26.994Z,19.33
2019-04-28T20:08:55.982Z,24.23
2019-04-28T20:11:24.178Z,12.93
2019-04-28T20:13:53.163Z,3.73
2019-04-28T20:16:22.221Z,4.43
2019-04-28T20:18:51.100Z,5.43
2019-04-28T20:21:20.022Z,4.60
2019-04-28T20:23:48.653Z,6.50
2019-04-28T20:26:17.064Z,4.10
2019-04-28T20:28:46.166Z,4.20
2019-04-28T20:31:14.984Z,3.93
2019-04-28T20:33:44.483Z,21.57
2019-04-28T20:36:36.177Z,4.10
2019-04-28T20:39:09.727Z,3.97
2019-04-28T20:41:38.868Z,12.70
2019-04-28T20:44:07.428Z,5.07
2019-04-28T20:46:35.515Z,5.80
2019-04-28T20:49:04.750Z,3.60
2019-04-28T20:51:33.352Z,2.60
2019-04-28T20:54:02.349Z,4.70
2019-04-28T20:56:32.204Z,8.40
2019-04-28T20:59:00.391Z,5.40
2019-04-28T21:01:30.000Z,15.30
2019-04-28T21:03:58.280Z,8.50
2019-04-28T21:06:27.317Z,24.50
2019-04-28T21:08:57.114Z,24.93
2019-04-28T21:11:26.495Z,8.83
2019-04-28T21:13:57.231Z,5.20
2019-04-28T21:16:25.929Z,3.40
2019-04-28T21:18:54.938Z,3.37
2019-04-28T21:21:23.521Z,2.93
2019-04-28T21:23:53.106Z,2.60
2019-04-28T21:26:22.698Z,2.10
2019-04-28T21:28:51.760Z,2.13
2019-04-28T21:31:20.931Z,2.40
2019-04-28T21:33:49.947Z,1.90
2019-04-28T21:36:18.633Z,2.00
2019-04-28T21:38:50.360Z,2.40
2019-04-28T21:41:19.279Z,1.80
2019-04-28T21:43:54.617Z,2.03
2019-04-28T21:46:40.462Z,2.40
2019-04-28T21:49:22.015Z,2.63
2019-04-28T21:51:50.080Z,3.03
2019-04-28T21:54:18.880Z,3.30
2019-04-28T21:56:47.021Z,2.80
2019-04-28T21:59:15.984Z,2.10
2019-04-28T22:01:44.898Z,3.00
2019-04-28T22:04:13.647Z,2.83
2019-04-28T22:06:42.204Z,2.70
2019-04-28T22:09:10.915Z,3.30
2019-04-28T22:11:39.442Z,5.03
2019-04-28T22:14:08.235Z,5.10
2019-04-28T22:16:36.574Z,4.07
2019-04-28T22:19:04.840Z,4.30
2019-04-28T22:21:32.738Z,4.07
2019-04-28T22:24:32.734Z,8.70
2019-04-28T22:27:01.176Z,6.60
2019-04-28T22:29:29.801Z,7.07
2019-04-28T22:31:58.043Z,5.00
2019-04-28T22:34:26.638Z,4.90
2019-04-28T22:36:55.386Z,4.83
2019-04-28T22:39:23.577Z,4.70
2019-04-28T22:41:52.024Z,4.63
2019-04-28T22:44:19.541Z,5.13
2019-04-28T22:46:48.054Z,3.57
2019-04-28T22:49:16.683Z,3.50
2019-04-28T22:51:44.948Z,3.40
2019-04-28T22:54:34.890Z,3.80
2019-04-28T22:57:25.328Z,3.37
2019-04-28T22:59:53.523Z,3.33
2019-04-28T23:02:21.710Z,3.90
2019-04-28T23:05:18.642Z,4.03
2019-04-28T23:07:46.833Z,5.27
2019-04-28T23:10:15.718Z,4.73
2019-04-28T23:12:44.231Z,4.07
2019-04-28T23:15:13.966Z,11.90
2019-04-28T23:17:42.285Z,6.27
2019-04-28T23:20:12.473Z,6.57
2019-04-28T23:22:49.367Z,5.67
2019-04-28T23:25:17.269Z,5.80
2019-04-28T23:27:45.963Z,5.80
2019-04-28T23:30:34.961Z,5.23
2019-04-28T23:33:02.792Z,5.03
2019-04-28T23:35:30.659Z,5.83
2019-04-28T23:37:59.244Z,5.70
2019-04-28T23:40:27.838Z,5.33
2019-04-28T23:43:01.283Z,5.67
2019-04-28T23:45:30.069Z,7.00
2019-04-28T23:47:58.274Z,7.13
2019-04-28T23:50:35.595Z,7.07
2019-04-28T23:53:07.269Z,7.67
2019-04-28T23:55:35.453Z,7.73
2019-04-28T23:58:02.989Z,7.33
